Flight Track Log - Related Links

Times and Time Zones

All times are in EST time to prevent confusion due to time zone crossing. See the N5293J flight status page for this flight to view local times or setup timezone preferences in your user account.

Time Position Orientation Groundspeed Altitude Reporting Facility
EST Latitude Longitude Course Direction KTS MPH feet Rate Location/Type
Thu 05:33:56 PM 43.1000 -88.0167 90° East 124 143 1,300  Level KMKE
Thu 05:34:32 PM 43.1000 -88.0000 90° East 101 116 2,300 1,183 Climbing KMKE
Thu 05:35:07 PM 43.1086 -87.9806 59° Northeast 123 142 2,700 928 Climbing Chicago Center
Thu 05:36:09 PM 43.1294 -87.9431 53° Northeast 122 140 3,800 927 Climbing Chicago Center
Thu 05:37:10 PM 43.1439 -87.9019 64° Northeast 122 140 4,600 732 Climbing Chicago Center
Thu 05:38:12 PM 43.1544 -87.8536 73° East 129 148 5,300 677 Climbing Chicago Center
Thu 05:39:14 PM 43.1603 -87.8000 81° East 139 160 6,000 774 Climbing Chicago Center
Thu 05:40:16 PM 43.1642 -87.7314 86° East 149 171 6,900 439 Climbing Chicago Center
Thu 05:41:17 PM 43.1592 -87.6689 96° East 161 185 6,900  Level Chicago Center
Thu 05:42:19 PM 43.1583 -87.5994 91° East 177 204 6,900  Level Chicago Center
Thu 05:43:21 PM 43.1606 -87.5267 88° East 187 215 6,900  Level Chicago Center
Thu 05:44:23 PM 43.1617 -87.4544 89° East 190 219 6,900  Level Chicago Center
Thu 05:45:24 PM 43.1633 -87.3817 88° East 192 221 6,900  Level Chicago Center
Thu 05:46:26 PM 43.1633 -87.3039 90° East 190 219 6,900  Level Chicago Center
Thu 05:47:28 PM 43.1656 -87.2317 88° East 190 219 6,900 -48 Level Chicago Center
Thu 05:48:30 PM 43.1669 -87.1592 88° East 191 220 6,800  Descending Chicago Center
Thu 05:49:32 PM 43.1564 -87.0925 102° East 181 208 6,900 49 Climbing Chicago Center
Thu 05:50:33 PM 43.1361 -87.0181 110° East 175 201 6,900  Level Chicago Center
Thu 05:51:35 PM 43.1192 -86.9558 110° East 175 201 6,900 -145 Level Chicago Center
Thu 05:52:37 PM 43.1036 -86.8903 108° East 179 206 6,600 -532 Descending Chicago Center
Thu 05:53:39 PM 43.0858 -86.8194 109° East 192 221 5,800 -726 Descending Chicago Center
Thu 05:54:41 PM 43.0703 -86.7506 107° East 192 221 5,100 -774 Descending Chicago Center
Thu 05:55:43 PM 43.0528 -86.6875 111° Southeast 182 209 4,200 -968 Descending Chicago Center
Thu 05:56:45 PM 43.0342 -86.6147 109° East 175 201 3,100 -878 Descending Chicago Center
Thu 05:57:46 PM 43.0400 -86.5533 83° East 172 198 2,400 -341 Descending Chicago Center
Thu 05:58:48 PM 43.0531 -86.4989 72° East 162 186 2,400  Level Chicago Center
Thu 05:59:50 PM 43.0644 -86.4469 73° East 151 174 2,400 -48 Level Chicago Center
Thu 06:00:52 PM 43.0889 -86.4044 52° Northeast 145 167 2,300 -48 Descending Chicago Center
Thu 06:01:54 PM 43.1081 -86.3647 57° Northeast 135 155 2,300 -242 Level Chicago Center
Thu 06:02:56 PM 43.1244 -86.3264 60° Northeast 125 144 1,800 -581 Descending Chicago Center
Thu 06:03:58 PM 43.1436 -86.2878 56° Northeast 112 129 1,100 -484 Descending Chicago Center
Thu 06:05:00 PM 43.1589 -86.2578 55° Northeast 101 116 800 -290 Descending Chicago Center
Thu 06:06:00 PM 43.1667 -86.2333 63° Northeast  Level FlightAware Approximate
Thu 06:13:00 PM 43.1677 -86.2354 63° Northeast  Level Estimated

Login

Don't have an account? Register now (free) for customized features, flight alerts, and more!